createdAt,value
2019-04-04T00:03:51.500Z,58.40
2019-04-04T00:08:54.370Z,58.50
2019-04-04T00:13:58.204Z,58.10
2019-04-04T00:19:02.032Z,58.00
2019-04-04T00:24:07.092Z,58.00
2019-04-04T00:29:11.530Z,57.90
2019-04-04T00:34:15.515Z,57.90
2019-04-04T00:39:19.504Z,57.80
2019-04-04T00:44:23.744Z,57.80
2019-04-04T00:49:27.756Z,57.80
2019-04-04T00:54:31.583Z,57.80
2019-04-04T00:59:35.412Z,57.80
2019-04-04T01:04:39.244Z,57.70
2019-04-04T01:09:43.068Z,57.70
2019-04-04T01:14:46.893Z,57.60
2019-04-04T01:19:50.623Z,57.70
2019-04-04T01:24:54.446Z,57.70
2019-04-04T01:29:58.376Z,57.70
2019-04-04T01:35:02.203Z,57.80
2019-04-04T01:40:06.036Z,57.60
2019-04-04T01:45:12.746Z,57.70
2019-04-04T01:50:15.532Z,57.60
2019-04-04T01:55:19.362Z,57.60
2019-04-04T02:00:23.188Z,57.60
2019-04-04T02:05:27.594Z,57.60
2019-04-04T02:10:34.575Z,57.60
2019-04-04T02:15:37.131Z,57.60
2019-04-04T02:20:40.951Z,57.60
2019-04-04T02:25:45.093Z,57.60
2019-04-04T02:30:49.311Z,57.60
2019-04-04T02:35:53.359Z,57.60
2019-04-04T02:40:57.184Z,57.60
2019-04-04T02:46:01.017Z,57.60
2019-04-04T02:51:07.359Z,57.60
2019-04-04T02:56:10.821Z,57.60
2019-04-04T03:01:14.746Z,57.60
2019-04-04T03:06:18.782Z,57.70
2019-04-04T03:11:22.970Z,57.70
2019-04-04T03:16:27.048Z,57.70
2019-04-04T03:21:30.772Z,57.70
2019-04-04T03:26:34.704Z,57.70
2019-04-04T03:31:39.226Z,57.80
2019-04-04T03:36:43.284Z,57.70
2019-04-04T03:41:47.107Z,57.70
2019-04-04T03:46:50.937Z,57.70
2019-04-04T03:51:54.773Z,57.70
2019-04-04T03:56:58.801Z,58.20
2019-04-04T04:02:02.729Z,57.80
2019-04-04T04:07:06.561Z,57.80
2019-04-04T04:12:11.281Z,57.60
2019-04-04T04:17:15.440Z,57.60
2019-04-04T04:22:19.529Z,57.60
2019-04-04T04:27:23.459Z,57.60
2019-04-04T04:32:27.191Z,57.30
2019-04-04T04:37:31.058Z,32.90
2019-04-04T04:42:34.784Z,37.00
2019-04-04T04:47:38.572Z,40.40
2019-04-04T04:52:46.289Z,42.70
2019-04-04T04:57:47.715Z,44.90
2019-04-04T05:02:53.166Z,46.30
2019-04-04T05:07:56.929Z,47.00
2019-04-04T05:13:00.918Z,47.90
2019-04-04T05:18:04.750Z,48.40
2019-04-04T05:23:10.989Z,48.40
2019-04-04T05:28:13.811Z,48.60
2019-04-04T05:33:17.506Z,48.50
2019-04-04T05:38:21.283Z,48.40
2019-04-04T05:43:25.007Z,47.30
2019-04-04T05:48:29.094Z,45.00
2019-04-04T05:53:35.427Z,42.00
2019-04-04T05:58:39.055Z,38.60
2019-04-04T06:03:42.887Z,35.60
2019-04-04T06:08:46.721Z,32.60
2019-04-04T06:13:50.845Z,29.40
2019-04-04T06:18:54.667Z,28.20
2019-04-04T06:23:58.504Z,26.20
2019-04-04T06:29:02.223Z,24.60
2019-04-04T06:34:08.177Z,24.00
2019-04-04T06:39:11.520Z,25.80
2019-04-04T06:44:15.414Z,23.00
2019-04-04T06:49:19.481Z,22.00
2019-04-04T06:54:25.648Z,21.50
2019-04-04T06:59:29.285Z,20.50
2019-04-04T07:04:36.091Z,19.00
2019-04-04T07:09:38.471Z,18.60
2019-04-04T07:14:46.014Z,18.00
2019-04-04T07:19:47.977Z,17.80
2019-04-04T07:24:51.796Z,19.20
2019-04-04T07:29:56.932Z,19.50
2019-04-04T07:35:01.602Z,21.10
2019-04-04T07:40:06.649Z,22.30
2019-04-04T14:30:25.742Z,30.40
2019-04-04T14:35:29.962Z,30.50
2019-04-04T14:40:33.738Z,29.60
2019-04-04T14:45:37.515Z,29.40
2019-04-04T14:50:41.285Z,29.90
2019-04-04T14:55:45.008Z,29.70
2019-04-04T15:00:48.754Z,30.00
2019-04-04T15:05:52.434Z,29.90
2019-04-04T15:10:56.160Z,30.30
2019-04-04T15:16:16.588Z,29.60
2019-04-04T15:21:20.319Z,30.10
2019-04-04T15:26:24.539Z,29.80
2019-04-04T15:31:28.284Z,30.10
2019-04-04T15:36:32.036Z,29.80
2019-04-04T15:41:37.099Z,30.00
2019-04-04T15:46:41.104Z,30.80
2019-04-04T15:51:44.848Z,30.50
2019-04-04T15:56:49.046Z,31.30
2019-04-04T16:01:52.765Z,31.90
2019-04-04T16:06:57.298Z,31.70
2019-04-04T16:12:01.023Z,32.10
2019-04-04T16:17:04.758Z,32.60
2019-04-04T16:22:08.532Z,32.90
2019-04-04T16:27:12.293Z,33.20
2019-04-04T16:32:16.022Z,33.70
2019-04-04T16:37:19.767Z,33.90
2019-04-04T16:42:23.454Z,33.40
2019-04-04T16:47:27.363Z,33.60
2019-04-04T16:52:31.196Z,34.50
2019-04-04T16:57:35.330Z,35.10
2019-04-04T17:02:39.157Z,35.60
2019-04-04T17:07:42.981Z,36.20
2019-04-04T17:12:46.813Z,37.10
2019-04-04T17:17:50.493Z,37.00
2019-04-04T17:22:56.003Z,37.40
2019-04-04T17:27:59.745Z,38.30
2019-04-04T17:33:03.520Z,37.70
2019-04-04T17:38:07.285Z,38.20
2019-04-04T17:43:11.448Z,38.60
2019-04-04T17:48:15.443Z,38.80
2019-04-04T17:53:19.270Z,39.30
2019-04-04T17:58:23.012Z,39.40
2019-04-04T18:03:26.712Z,39.80
2019-04-04T18:08:30.436Z,40.10
2019-04-04T18:13:34.159Z,40.50
2019-04-04T18:18:37.854Z,40.40
2019-04-04T18:23:41.595Z,40.40
2019-04-04T18:28:45.321Z,40.50
2019-04-04T18:33:49.470Z,41.00
2019-04-04T18:38:53.549Z,41.70
2019-04-04T18:43:57.548Z,41.10
2019-04-04T18:49:02.602Z,40.90
2019-04-04T18:54:06.327Z,40.80
2019-04-04T18:59:10.111Z,40.80
2019-04-04T19:04:13.862Z,40.80
2019-04-04T19:09:17.616Z,41.10
2019-04-04T19:14:21.336Z,41.10
2019-04-04T19:19:25.028Z,41.10
2019-04-04T19:24:28.742Z,41.10
2019-04-04T19:29:32.464Z,41.20
2019-04-04T19:34:36.207Z,41.00
2019-04-04T19:39:39.946Z,40.70
2019-04-04T19:44:53.112Z,40.50
2019-04-04T19:49:49.099Z,40.60
2019-04-04T19:54:52.790Z,40.70
2019-04-04T19:59:56.572Z,41.00
2019-04-04T20:05:00.377Z,41.30
2019-04-04T20:10:06.080Z,41.60
2019-04-04T20:15:10.083Z,42.10
2019-04-04T20:20:13.834Z,42.40
2019-04-04T20:25:17.597Z,42.80
2019-04-04T20:30:24.452Z,43.60
2019-04-04T20:35:28.242Z,44.10
2019-04-04T20:40:31.925Z,44.70
2019-04-04T20:45:35.652Z,45.30
2019-04-04T20:50:39.395Z,45.90
2019-04-04T20:55:43.197Z,46.50
2019-04-04T21:00:46.885Z,46.90
2019-04-04T21:05:50.616Z,47.20
2019-04-04T21:10:54.304Z,47.50
2019-04-04T21:15:58.027Z,48.00
2019-04-04T21:21:02.053Z,49.10
2019-04-04T21:26:05.747Z,48.80
2019-04-04T21:31:09.487Z,49.30
2019-04-04T21:36:13.258Z,49.80
2019-04-04T21:41:16.978Z,49.80
2019-04-04T21:46:20.693Z,50.20
2019-04-04T21:51:24.435Z,50.30
2019-04-04T21:56:28.172Z,50.50
2019-04-04T22:01:32.002Z,50.60
2019-04-04T22:06:35.692Z,51.00
2019-04-04T22:11:39.432Z,51.10
2019-04-04T22:16:43.524Z,51.20
2019-04-04T22:21:47.222Z,51.40
2019-04-04T22:26:50.986Z,51.50
2019-04-04T22:31:54.748Z,51.60
2019-04-04T22:36:58.453Z,51.80
2019-04-04T22:42:02.199Z,51.90
2019-04-04T22:47:05.959Z,52.00
2019-04-04T22:52:09.645Z,52.10
2019-04-04T22:57:13.396Z,52.10
2019-04-04T23:02:17.081Z,52.10
2019-04-04T23:07:20.778Z,52.30
2019-04-04T23:12:24.532Z,52.50
2019-04-04T23:17:28.218Z,52.60
2019-04-04T23:22:32.014Z,52.60
2019-04-04T23:27:35.706Z,52.80
2019-04-04T23:32:39.449Z,52.80
2019-04-04T23:37:43.161Z,53.00
2019-04-04T23:42:46.902Z,53.00
2019-04-04T23:47:50.669Z,52.90
2019-04-04T23:52:54.391Z,52.80
2019-04-04T23:57:58.086Z,52.70
